Sointula, Canada
Current Conditions -  °F | °C
As of 10:00 AM on Monday 26 Jan 2015 (Local Time) from CYZT Reporting Station
Overcast Overcast  
Wind Chill: 50°   Ceiling: 10000
Heat Index: 50°   Visibility: 20mi
Dew Point: 45°   Wind: 2mph
Humidity: 82%   Direction: 150°SSE
Pressure: 29.75"   Gusts: NA
Location:  50.63°N, 127.02°W
Report Text: CYZT 261800Z 15002KT 20SM BKN100 BKN180 OVC240 10/07 A2975 RMK AC5AS2CI1 SLP073
Loading
Personal Weather Stations






























Interactive Weather Map New forecast layout! Learn more

10-Day Weather Forecast

Advertisements
Track Severe Weather on mobile